Whitwell, United Kingdom
Current Conditions -  °F | °C
As of 1:50 AM on Tuesday 21 Oct 2014 (Local Time) from EGCN Reporting Station
Light Rain Light Rain  
Wind Chill: 55°   Ceiling: 1600
Heat Index: 55°   Visibility: 6mi
Dew Point: 52°   Wind: 15mph
Humidity: 88%   Direction: 180°S
Pressure: 29.62"   Gusts: NA
Location:  53.28°N, 1.22°W
Report Text: EGCN 210050Z 18013KT 9999 -RA BKN016 13/11 Q1003
Loading
Personal Weather Stations






























Interactive Weather Map
Tropical Storm Tracking
New forecast layout! Learn more

10-Day Weather Forecast

Advertisements
Track Severe Weather on mobile